G. O. Sars — LMEL — position and weather

sailwx.info

Track history (hours):
 
Tides and Currents Weather Stations Pressure Air Temp Water Temp Dewpoint Dewpoint Depression Visibility Wind Speed Wind Dir Waves Ship Positions

Oceanographic research ship G. O. Sars (Norway)

Detailed information on ship capabilities available from University of Delaware's Ocean Information Center and ARCUS's ALIAS (Arctic Logistics Information and Support) project.

Last reported at 2019-Apr-21 22:30 UTC. Time now 2019-Apr-21 22:50 UTC.
Position N 61°38' E 004°59'.

Type: Cargo ship. MMSI: 257105000.

Date/timePositionNaut miles runAvg speedWind from/ knotsBaromVisibWave heightAir tempDewpointWater temp
2019-Apr-21 22:30N 61°38' E 004°59'611.0
2019-Apr-21 22:00N 61°44' E 004°56'510.4
2019-Apr-21 21:30N 61°47' E 005°04'610.8
2019-Apr-21 21:00N 61°50' E 005°14'3 6.1
2019-Apr-21 20:30N 61°53' E 005°12'4 7.9
2019-Apr-21 20:00N 61°56' E 005°07'5 9.2
2019-Apr-21 19:30N 62°00' E 005°09'611.1
2019-Apr-21 19:00N 62°06' E 005°06'510.4
2019-Apr-21 18:30N 62°11' E 005°05'5 9.6
2019-Apr-21 18:00N 62°13' E 005°14'611.3
2019-Apr-21 17:30N 62°10' E 005°23'5 9.5
2019-Apr-21 17:00N 62°12' E 005°33'510.7
2019-Apr-21 16:31N 62°12' E 005°44'611.1
2019-Apr-21 16:00N 62°14' E 005°55'611.6
2019-Apr-21 15:30N 62°19' E 006°03'5 9.4
2019-Apr-21 15:00N 62°23' E 006°05'510.5
2019-Apr-21 14:30N 62°28' E 006°04'510.7
2019-Apr-21 14:00N 62°33' E 006°10'5 9.3
2019-Apr-21 13:30N 62°36' E 006°17'2 4.0
2019-Apr-21 13:00N 62°38' E 006°20'510.8
2019-Apr-21 12:30N 62°42' E 006°28'611.5
2019-Apr-21 12:00N 62°47' E 006°35'611.8
2019-Apr-21 11:30N 62°52' E 006°42'611.7
2019-Apr-21 11:00N 62°57' E 006°49'510.4
2019-Apr-21 10:30N 62°60' E 006°58'510.5
2019-Apr-21 10:01N 63°01' E 007°09'510.4
2019-Apr-21 09:30N 63°03' E 007°19'510.5
2019-Apr-21 09:00N 63°06' E 007°30'510.5
2019-Apr-21 08:31N 63°09' E 007°39'510.9
2019-Apr-21 08:01N 63°12' E 007°49'510.8
2019-Apr-21 07:30N 63°14' E 007°60'510.6
2019-Apr-21 07:00N 63°17' E 008°10'510.7
2019-Apr-21 06:30N 63°20' E 008°19'610.9
2019-Apr-21 06:00N 63°24' E 008°28'510.8
2019-Apr-21 05:30N 63°26' E 008°40'610.9
2019-Apr-21 04:59N 63°28' E 008°51'511.1
2019-Apr-21 04:30N 63°29' E 009°03'611.5
2019-Apr-21 04:01N 63°32' E 009°14'510.1
2019-Apr-21 03:30N 63°37' E 009°14'510.5
2019-Apr-21 03:01N 63°43' E 009°16'510.5
2019-Apr-21 02:29N 63°48' E 009°17'510.7
2019-Apr-21 02:00N 63°53' E 009°21'510.9
2019-Apr-21 01:30N 63°58' E 009°26'510.9
2019-Apr-21 01:00N 64°03' E 009°31'510.8
2019-Apr-21 00:30N 64°08' E 009°36'510.5
2019-Apr-21 00:00N 64°12' E 009°42'510.2
2019-Apr-20 23:30N 64°17' E 009°49'510.0
2019-Apr-20 23:00N 64°20' E 009°57'510.0
2019-Apr-20 22:30N 64°24' E 010°05'5 9.6
2019-Apr-20 22:00N 64°27' E 010°13'5 9.3
2019-Apr-20 21:30N 64°30' E 010°21'5 9.2
2019-Apr-20 21:00N 64°33' E 010°29'5 9.4
2019-Apr-20 20:30N 64°36' E 010°37'5 9.3
2019-Apr-20 20:00N 64°39' E 010°45'5 9.9
2019-Apr-20 19:30N 64°43' E 010°54'510.4
2019-Apr-20 19:00N 64°46' E 011°03'611.0
2019-Apr-20 18:30N 64°50' E 011°12'4 8.5
2019-Apr-20 18:00N 64°53' E 011°19'611.2
2019-Apr-20 17:30N 64°57' E 011°29'510.7
2019-Apr-20 16:59N 65°01' E 011°39'510.6
2019-Apr-20 16:30N 65°05' E 011°46'611.6
2019-Apr-20 16:00N 65°10' E 011°51'611.6
2019-Apr-20 15:30N 65°15' E 011°56'611.7
2019-Apr-20 15:00N 65°21' E 012°02'5 9.8
2019-Apr-20 14:30N 65°25' E 011°57'510.4
2019-Apr-20 14:00N 65°30' E 011°60'611.3
2019-Apr-20 13:30N 65°35' E 012°07'611.3
2019-Apr-20 13:00N 65°40' E 012°14'611.3
2019-Apr-20 12:30N 65°45' E 012°18'611.3
2019-Apr-20 12:00N 65°51' E 012°22'510.5
2019-Apr-20 11:30N 65°56' E 012°24'611.0
2019-Apr-20 11:00N 66°00' E 012°31'611.4
2019-Apr-20 10:30N 66°05' E 012°40'611.2
2019-Apr-20 10:00N 66°09' E 012°49'611.5
2019-Apr-20 09:30N 66°15' E 012°54'611.2
2019-Apr-20 09:00N 66°20' E 012°57'510.8
2019-Apr-20 08:31N 66°25' E 012°58'611.1
2019-Apr-20 08:00N 66°31' E 012°58'5 9.8
2019-Apr-20 07:30N 66°35' E 013°05'611.2
2019-Apr-20 07:00N 66°41' E 013°08'611.5
2019-Apr-20 06:30N 66°46' E 013°13'611.2
2019-Apr-20 06:00N 66°51' E 013°19'511.0
2019-Apr-20 05:31N 66°55' E 013°29'510.0
2019-Apr-20 05:00N 66°59' E 013°35'611.3
2019-Apr-20 04:30N 67°02' E 013°48'611.3
2019-Apr-20 04:01N 67°06' E 013°57'611.0
2019-Apr-20 03:30N 67°11' E 014°03'611.7
2019-Apr-20 03:01N 67°16' E 014°11'611.7
2019-Apr-20 02:30N 67°20' E 014°21'611.2
2019-Apr-20 02:00N 67°25' E 014°27'611.3
2019-Apr-20 01:30N 67°31' E 014°22'611.1
2019-Apr-20 01:01N 67°36' E 014°18'510.9
2019-Apr-20 00:31N 67°41' E 014°15'510.4
2019-Apr-20 00:00N 67°47' E 014°18'5 9.7
2019-Apr-19 23:30N 67°51' E 014°24'510.1
2019-Apr-19 23:00N 67°54' E 014°34'5 9.8
2019-Apr-19 22:30N 67°58' E 014°43'5 9.7
2019-Apr-19 22:00N 68°01' E 014°52'510.1
2019-Apr-19 21:30N 68°05' E 015°01'510.0
2019-Apr-19 21:00N 68°08' E 015°12'5 9.9
2019-Apr-19 20:30N 68°11' E 015°23'510.0
2019-Apr-19 20:00N 68°13' E 015°35'510.3
2019-Apr-19 19:30N 68°16' E 015°46'510.4
2019-Apr-19 19:00N 68°20' E 015°56'510.9
2019-Apr-19 18:30N 68°25' E 016°02'610.9
2019-Apr-19 18:00N 68°30' E 016°08'510.6
2019-Apr-19 17:30N 68°33' E 016°19'5 9.6
2019-Apr-19 17:00N 68°34' E 016°32'510.1
2019-Apr-19 16:30N 68°39' E 016°37'510.4
2019-Apr-19 16:00N 68°44' E 016°43'510.2
2019-Apr-19 15:30N 68°48' E 016°50'510.5
2019-Apr-19 15:00N 68°53' E 016°58'510.3
2019-Apr-19 14:30N 68°57' E 017°06'510.5
2019-Apr-19 14:00N 69°01' E 017°16'510.9
2019-Apr-19 13:30N 69°05' E 017°24'611.1
2019-Apr-19 13:00N 69°07' E 017°38'611.5
2019-Apr-19 12:30N 69°09' E 017°53'4 7.9
2019-Apr-19 12:00N 69°13' E 017°57'510.6
2019-Apr-19 11:31N 69°18' E 017°58'5 9.6
2019-Apr-19 11:00N 69°23' E 018°05'610.9
2019-Apr-19 10:30N 69°28' E 018°07'611.4
2019-Apr-19 10:01N 69°31' E 018°21'610.8
2019-Apr-19 09:30N 69°33' E 018°36'4 8.5
2019-Apr-19 09:00N 69°34' E 018°48'510.0
2019-Apr-19 08:30N 69°38' E 018°56'2 3.5
2019-Apr-19 08:00N 69°40' E 018°58'0 0.0
2019-Apr-19 07:30N 69°40' E 018°58'0 0.0
2019-Apr-19 07:00N 69°40' E 018°58'0 0.0
2019-Apr-19 06:30N 69°40' E 018°58'0 0.0
2019-Apr-19 06:00N 69°40' E 018°58'0 0.0
2019-Apr-19 05:30N 69°40' E 018°58'0 0.0
2019-Apr-19 05:00N 69°40' E 018°58'1 2.2
2019-Apr-19 04:30N 69°40' E 019°00'4 8.2
2019-Apr-19 04:00N 69°44' E 019°04'3 5.4
2019-Apr-19 03:30N 69°46' E 019°09'3 6.5
2019-Apr-19 03:00N 69°48' E 019°17'4 7.4
2019-Apr-19 02:30N 69°51' E 019°24'4 7.6
2019-Apr-19 02:01N 69°54' E 019°29'4 8.5
2019-Apr-19 01:30N 69°57' E 019°37'5 9.5
2019-Apr-19 01:00N 70°02' E 019°41'511.0
2019-Apr-19 00:30N 70°07' E 019°36'510.9
2019-Apr-19 00:00N 70°12' E 019°29'511.0
2019-Apr-18 23:30N 70°17' E 019°26'510.9
2019-Apr-18 23:00N 70°23' E 019°22'5 9.7
2019-Apr-18 22:30N 70°28' E 019°20'5 9.8
2019-Apr-18 22:00N 70°32' E 019°16'5 9.8
2019-Apr-18 21:30N 70°37' E 019°11'5 9.7
2019-Apr-18 21:00N 70°41' E 019°06'5 9.8
2019-Apr-18 20:30N 70°46' E 019°01'5 9.6
2019-Apr-18 20:00N 70°51' E 018°56'5 9.5
2019-Apr-18 19:30N 70°55' E 018°52'6 9.5
2019-Apr-18 18:52N 71°01' E 018°46'4 9.5
2019-Apr-18 18:26N 71°05' E 018°42'37 9.4
2019-Apr-18 14:32N 71°40' E 018°14'3 9.0
2019-Apr-18 14:12N 71°43' E 018°12'4 9.3
2019-Apr-18 13:46N 71°47' E 018°09'4 9.4
2019-Apr-18 13:19N 71°51' E 018°05'  
Track history (hours):
 
Tides and Currents Weather Stations Pressure Air Temp Water Temp Dewpoint Dewpoint Depression Visibility Wind Speed Wind Dir Waves Ship Positions

Oceanographic research ship G. O. Sars (Norway)

Detailed information on ship capabilities available from University of Delaware's Ocean Information Center and ARCUS's ALIAS (Arctic Logistics Information and Support) project.

Last reported at 2019-Apr-21 22:30 UTC. Time now 2019-Apr-21 22:50 UTC.
Position N 61°38' E 004°59'.

Type: Cargo ship. MMSI: 257105000.

Date/timePositionNaut miles runAvg speedWind from/ knotsBaromVisibWave heightAir tempDewpointWater temp
2019-Apr-21 22:30N 61°38' E 004°59'611.0
2019-Apr-21 22:00N 61°44' E 004°56'510.4
2019-Apr-21 21:30N 61°47' E 005°04'610.8
2019-Apr-21 21:00N 61°50' E 005°14'3 6.1
2019-Apr-21 20:30N 61°53' E 005°12'4 7.9
2019-Apr-21 20:00N 61°56' E 005°07'5 9.2
2019-Apr-21 19:30N 62°00' E 005°09'611.1
2019-Apr-21 19:00N 62°06' E 005°06'510.4
2019-Apr-21 18:30N 62°11' E 005°05'5 9.6
2019-Apr-21 18:00N 62°13' E 005°14'611.3
2019-Apr-21 17:30N 62°10' E 005°23'5 9.5
2019-Apr-21 17:00N 62°12' E 005°33'510.7
2019-Apr-21 16:31N 62°12' E 005°44'611.1
2019-Apr-21 16:00N 62°14' E 005°55'611.6
2019-Apr-21 15:30N 62°19' E 006°03'5 9.4
2019-Apr-21 15:00N 62°23' E 006°05'510.5
2019-Apr-21 14:30N 62°28' E 006°04'510.7
2019-Apr-21 14:00N 62°33' E 006°10'5 9.3
2019-Apr-21 13:30N 62°36' E 006°17'2 4.0
2019-Apr-21 13:00N 62°38' E 006°20'510.8
2019-Apr-21 12:30N 62°42' E 006°28'611.5
2019-Apr-21 12:00N 62°47' E 006°35'611.8
2019-Apr-21 11:30N 62°52' E 006°42'611.7
2019-Apr-21 11:00N 62°57' E 006°49'510.4
2019-Apr-21 10:30N 62°60' E 006°58'510.5
2019-Apr-21 10:01N 63°01' E 007°09'510.4
2019-Apr-21 09:30N 63°03' E 007°19'510.5
2019-Apr-21 09:00N 63°06' E 007°30'510.5
2019-Apr-21 08:31N 63°09' E 007°39'510.9
2019-Apr-21 08:01N 63°12' E 007°49'510.8
2019-Apr-21 07:30N 63°14' E 007°60'510.6
2019-Apr-21 07:00N 63°17' E 008°10'510.7
2019-Apr-21 06:30N 63°20' E 008°19'610.9
2019-Apr-21 06:00N 63°24' E 008°28'510.8
2019-Apr-21 05:30N 63°26' E 008°40'610.9
2019-Apr-21 04:59N 63°28' E 008°51'511.1
2019-Apr-21 04:30N 63°29' E 009°03'611.5
2019-Apr-21 04:01N 63°32' E 009°14'510.1
2019-Apr-21 03:30N 63°37' E 009°14'510.5
2019-Apr-21 03:01N 63°43' E 009°16'510.5
2019-Apr-21 02:29N 63°48' E 009°17'510.7
2019-Apr-21 02:00N 63°53' E 009°21'510.9
2019-Apr-21 01:30N 63°58' E 009°26'510.9
2019-Apr-21 01:00N 64°03' E 009°31'510.8
2019-Apr-21 00:30N 64°08' E 009°36'510.5
2019-Apr-21 00:00N 64°12' E 009°42'510.2
2019-Apr-20 23:30N 64°17' E 009°49'510.0
2019-Apr-20 23:00N 64°20' E 009°57'510.0
2019-Apr-20 22:30N 64°24' E 010°05'5 9.6
2019-Apr-20 22:00N 64°27' E 010°13'5 9.3
2019-Apr-20 21:30N 64°30' E 010°21'5 9.2
2019-Apr-20 21:00N 64°33' E 010°29'5 9.4
2019-Apr-20 20:30N 64°36' E 010°37'5 9.3
2019-Apr-20 20:00N 64°39' E 010°45'5 9.9
2019-Apr-20 19:30N 64°43' E 010°54'510.4
2019-Apr-20 19:00N 64°46' E 011°03'611.0
2019-Apr-20 18:30N 64°50' E 011°12'4 8.5
2019-Apr-20 18:00N 64°53' E 011°19'611.2
2019-Apr-20 17:30N 64°57' E 011°29'510.7
2019-Apr-20 16:59N 65°01' E 011°39'510.6
2019-Apr-20 16:30N 65°05' E 011°46'611.6
2019-Apr-20 16:00N 65°10' E 011°51'611.6
2019-Apr-20 15:30N 65°15' E 011°56'611.7
2019-Apr-20 15:00N 65°21' E 012°02'5 9.8
2019-Apr-20 14:30N 65°25' E 011°57'510.4
2019-Apr-20 14:00N 65°30' E 011°60'611.3
2019-Apr-20 13:30N 65°35' E 012°07'611.3
2019-Apr-20 13:00N 65°40' E 012°14'611.3
2019-Apr-20 12:30N 65°45' E 012°18'611.3
2019-Apr-20 12:00N 65°51' E 012°22'510.5
2019-Apr-20 11:30N 65°56' E 012°24'611.0
2019-Apr-20 11:00N 66°00' E 012°31'611.4
2019-Apr-20 10:30N 66°05' E 012°40'611.2
2019-Apr-20 10:00N 66°09' E 012°49'611.5
2019-Apr-20 09:30N 66°15' E 012°54'611.2
2019-Apr-20 09:00N 66°20' E 012°57'510.8
2019-Apr-20 08:31N 66°25' E 012°58'611.1
2019-Apr-20 08:00N 66°31' E 012°58'5 9.8
2019-Apr-20 07:30N 66°35' E 013°05'611.2
2019-Apr-20 07:00N 66°41' E 013°08'611.5
2019-Apr-20 06:30N 66°46' E 013°13'611.2
2019-Apr-20 06:00N 66°51' E 013°19'511.0
2019-Apr-20 05:31N 66°55' E 013°29'510.0
2019-Apr-20 05:00N 66°59' E 013°35'611.3
2019-Apr-20 04:30N 67°02' E 013°48'611.3
2019-Apr-20 04:01N 67°06' E 013°57'611.0
2019-Apr-20 03:30N 67°11' E 014°03'611.7
2019-Apr-20 03:01N 67°16' E 014°11'611.7
2019-Apr-20 02:30N 67°20' E 014°21'611.2
2019-Apr-20 02:00N 67°25' E 014°27'611.3
2019-Apr-20 01:30N 67°31' E 014°22'611.1
2019-Apr-20 01:01N 67°36' E 014°18'510.9
2019-Apr-20 00:31N 67°41' E 014°15'510.4
2019-Apr-20 00:00N 67°47' E 014°18'5 9.7
2019-Apr-19 23:30N 67°51' E 014°24'510.1
2019-Apr-19 23:00N 67°54' E 014°34'5 9.8
2019-Apr-19 22:30N 67°58' E 014°43'5 9.7
2019-Apr-19 22:00N 68°01' E 014°52'510.1
2019-Apr-19 21:30N 68°05' E 015°01'510.0
2019-Apr-19 21:00N 68°08' E 015°12'5 9.9
2019-Apr-19 20:30N 68°11' E 015°23'510.0
2019-Apr-19 20:00N 68°13' E 015°35'510.3
2019-Apr-19 19:30N 68°16' E 015°46'510.4
2019-Apr-19 19:00N 68°20' E 015°56'510.9
2019-Apr-19 18:30N 68°25' E 016°02'610.9
2019-Apr-19 18:00N 68°30' E 016°08'510.6
2019-Apr-19 17:30N 68°33' E 016°19'5 9.6
2019-Apr-19 17:00N 68°34' E 016°32'510.1
2019-Apr-19 16:30N 68°39' E 016°37'510.4
2019-Apr-19 16:00N 68°44' E 016°43'510.2
2019-Apr-19 15:30N 68°48' E 016°50'510.5
2019-Apr-19 15:00N 68°53' E 016°58'510.3
2019-Apr-19 14:30N 68°57' E 017°06'510.5
2019-Apr-19 14:00N 69°01' E 017°16'510.9
2019-Apr-19 13:30N 69°05' E 017°24'611.1
2019-Apr-19 13:00N 69°07' E 017°38'611.5
2019-Apr-19 12:30N 69°09' E 017°53'4 7.9
2019-Apr-19 12:00N 69°13' E 017°57'510.6
2019-Apr-19 11:31N 69°18' E 017°58'5 9.6
2019-Apr-19 11:00N 69°23' E 018°05'610.9
2019-Apr-19 10:30N 69°28' E 018°07'611.4
2019-Apr-19 10:01N 69°31' E 018°21'610.8
2019-Apr-19 09:30N 69°33' E 018°36'4 8.5
2019-Apr-19 09:00N 69°34' E 018°48'510.0
2019-Apr-19 08:30N 69°38' E 018°56'2 3.5
2019-Apr-19 08:00N 69°40' E 018°58'0 0.0
2019-Apr-19 07:30N 69°40' E 018°58'0 0.0
2019-Apr-19 07:00N 69°40' E 018°58'0 0.0
2019-Apr-19 06:30N 69°40' E 018°58'0 0.0
2019-Apr-19 06:00N 69°40' E 018°58'0 0.0
2019-Apr-19 05:30N 69°40' E 018°58'0 0.0
2019-Apr-19 05:00N 69°40' E 018°58'1 2.2
2019-Apr-19 04:30N 69°40' E 019°00'4 8.2
2019-Apr-19 04:00N 69°44' E 019°04'3 5.4
2019-Apr-19 03:30N 69°46' E 019°09'3 6.5
2019-Apr-19 03:00N 69°48' E 019°17'4 7.4
2019-Apr-19 02:30N 69°51' E 019°24'4 7.6
2019-Apr-19 02:01N 69°54' E 019°29'4 8.5
2019-Apr-19 01:30N 69°57' E 019°37'5 9.5
2019-Apr-19 01:00N 70°02' E 019°41'511.0
2019-Apr-19 00:30N 70°07' E 019°36'510.9
2019-Apr-19 00:00N 70°12' E 019°29'511.0
2019-Apr-18 23:30N 70°17' E 019°26'510.9
2019-Apr-18 23:00N 70°23' E 019°22'5 9.7
2019-Apr-18 22:30N 70°28' E 019°20'5 9.8
2019-Apr-18 22:00N 70°32' E 019°16'5 9.8
2019-Apr-18 21:30N 70°37' E 019°11'5 9.7
2019-Apr-18 21:00N 70°41' E 019°06'5 9.8
2019-Apr-18 20:30N 70°46' E 019°01'5 9.6
2019-Apr-18 20:00N 70°51' E 018°56'5 9.5
2019-Apr-18 19:30N 70°55' E 018°52'6 9.5
2019-Apr-18 18:52N 71°01' E 018°46'4 9.5
2019-Apr-18 18:26N 71°05' E 018°42'37 9.4
2019-Apr-18 14:32N 71°40' E 018°14'3 9.0
2019-Apr-18 14:12N 71°43' E 018°12'4 9.3
2019-Apr-18 13:46N 71°47' E 018°09'4 9.4
2019-Apr-18 13:19N 71°51' E 018°05'  

Dump ship's entire track history